Terminal Aerodrome Forecast
Issued by NWS Rapid City, SD

Home | Current Version | Previous Version | Text Only | Print | Product List | Glossary Off
Versions: 1 2 3 4 5 6 7 8 9 10 11 12 13 14 15

000
FTUS43 KUNR 302223 AAA
TAFRAP
TAF AMD
KRAP 302223Z 3022/3118 18013KT P6SM FEW150 SCT250
      TEMPO 3022/3101 32024KT
     FM311100 32018G28KT P6SM OVC150=

USA.gov is the U.S. government's official web portal to all federal, state and local government web resources and services.